createdAt,value
2022-07-27T00:00:53.048Z,99.90
2022-07-27T00:03:19.793Z,99.90
2022-07-27T00:05:46.724Z,99.90
2022-07-27T00:08:13.436Z,99.90
2022-07-27T00:10:40.153Z,99.90
2022-07-27T00:13:06.961Z,99.90
2022-07-27T00:15:34.737Z,99.90
2022-07-27T00:18:01.407Z,99.90
2022-07-27T00:20:29.676Z,99.90
2022-07-27T00:22:56.624Z,99.90
2022-07-27T00:25:24.189Z,99.90
2022-07-27T00:27:50.858Z,99.90
2022-07-27T00:30:17.539Z,99.90
2022-07-27T00:32:44.382Z,99.90
2022-07-27T00:35:11.941Z,99.90
2022-07-27T00:37:40.068Z,99.90
2022-07-27T00:40:07.732Z,99.90
2022-07-27T00:42:35.425Z,99.90
2022-07-27T00:45:03.556Z,99.90
2022-07-27T00:47:30.257Z,99.90
2022-07-27T00:49:58.250Z,99.90
2022-07-27T00:52:25.509Z,99.90
2022-07-27T00:54:52.663Z,99.90
2022-07-27T00:57:19.608Z,99.90
2022-07-27T00:59:46.266Z,99.90
2022-07-27T01:02:13.010Z,99.90
2022-07-27T01:04:47.202Z,99.90
2022-07-27T01:07:14.280Z,99.90
2022-07-27T01:09:56.469Z,99.90
2022-07-27T01:12:27.736Z,99.90
2022-07-27T01:14:56.784Z,99.90
2022-07-27T01:17:24.439Z,99.90
2022-07-27T01:19:51.514Z,99.90
2022-07-27T01:22:18.774Z,99.90
2022-07-27T01:24:45.410Z,99.90
2022-07-27T01:27:12.094Z,99.90
2022-07-27T01:29:39.076Z,99.90
2022-07-27T01:32:06.210Z,99.90
2022-07-27T01:34:33.580Z,99.90
2022-07-27T01:37:02.010Z,99.90
2022-07-27T01:39:29.152Z,99.90
2022-07-27T01:41:55.956Z,99.90
2022-07-27T01:44:22.818Z,99.90
2022-07-27T01:46:49.756Z,99.90
2022-07-27T01:49:17.121Z,99.90
2022-07-27T01:51:44.002Z,99.90
2022-07-27T01:54:10.825Z,99.90
2022-07-27T01:56:37.537Z,99.90
2022-07-27T01:59:04.301Z,99.90
2022-07-27T02:01:31.066Z,99.90
2022-07-27T02:03:57.797Z,99.90
2022-07-27T02:06:24.454Z,99.90
2022-07-27T02:08:51.062Z,99.90
2022-07-27T02:11:36.218Z,99.90
2022-07-27T02:14:02.829Z,99.90
2022-07-27T02:16:29.532Z,99.90
2022-07-27T02:18:56.288Z,99.90
2022-07-27T02:21:22.903Z,99.90
2022-07-27T02:23:49.601Z,99.90
2022-07-27T02:26:16.238Z,99.90
2022-07-27T02:28:42.914Z,99.90
2022-07-27T02:31:09.609Z,99.90
2022-07-27T02:33:36.480Z,99.90
2022-07-27T02:36:04.241Z,99.90
2022-07-27T02:38:30.922Z,99.90
2022-07-27T02:40:57.572Z,99.90
2022-07-27T02:43:24.245Z,99.90
2022-07-27T02:45:51.750Z,99.90
2022-07-27T02:48:18.477Z,99.90
2022-07-27T02:50:45.140Z,99.90
2022-07-27T02:53:11.882Z,99.90
2022-07-27T02:55:38.521Z,99.90
2022-07-27T02:58:05.168Z,99.90
2022-07-27T03:00:31.756Z,99.90
2022-07-27T03:02:58.407Z,99.90
2022-07-27T03:05:25.092Z,99.90
2022-07-27T03:07:51.673Z,99.90
2022-07-27T03:10:18.418Z,99.90
2022-07-27T03:12:45.397Z,99.90
2022-07-27T03:15:12.189Z,99.90
2022-07-27T03:17:38.899Z,99.90
2022-07-27T03:20:09.389Z,99.90
2022-07-27T03:22:37.435Z,99.90
2022-07-27T03:25:04.796Z,99.90
2022-07-27T03:27:31.420Z,99.90
2022-07-27T03:29:58.567Z,99.90
2022-07-27T03:32:25.465Z,99.90
2022-07-27T03:34:52.123Z,99.90
2022-07-27T03:37:19.911Z,99.90
2022-07-27T03:39:46.598Z,99.90
2022-07-27T03:42:13.412Z,99.90
2022-07-27T03:44:40.104Z,99.90
2022-07-27T03:47:06.837Z,99.90
2022-07-27T03:49:33.521Z,99.90
2022-07-27T03:52:00.268Z,99.90
2022-07-27T03:54:27.230Z,99.90
2022-07-27T03:56:53.876Z,99.90
2022-07-27T03:59:20.534Z,99.90
2022-07-27T04:01:47.595Z,99.90
2022-07-27T04:04:14.291Z,99.90
2022-07-27T04:06:40.931Z,99.90
2022-07-27T04:09:08.372Z,99.90
2022-07-27T04:11:36.981Z,99.90
2022-07-27T04:14:05.062Z,99.90
2022-07-27T04:16:35.867Z,99.90
2022-07-27T04:19:03.087Z,99.90
2022-07-27T04:21:33.556Z,99.90
2022-07-27T04:24:01.496Z,99.90
2022-07-27T04:26:28.829Z,99.90
2022-07-27T04:28:55.592Z,99.90
2022-07-27T04:31:23.218Z,99.90
2022-07-27T04:33:50.229Z,99.90
2022-07-27T04:36:16.831Z,99.90
2022-07-27T04:38:43.656Z,99.90
2022-07-27T04:41:10.282Z,99.90
2022-07-27T04:43:36.931Z,99.90
2022-07-27T04:46:04.607Z,99.90
2022-07-27T04:48:35.594Z,99.90
2022-07-27T04:51:02.620Z,99.90
2022-07-27T04:53:29.324Z,99.90
2022-07-27T04:55:55.950Z,99.90
2022-07-27T04:58:22.808Z,99.90
2022-07-27T05:00:49.604Z,99.90
2022-07-27T05:03:16.254Z,99.90
2022-07-27T05:05:50.034Z,99.90
2022-07-27T05:08:18.041Z,99.90
2022-07-27T05:10:44.670Z,99.90
2022-07-27T05:13:12.155Z,99.90
2022-07-27T05:15:55.084Z,99.90
2022-07-27T05:18:22.701Z,99.90
2022-07-27T05:20:49.937Z,99.90
2022-07-27T05:23:17.625Z,99.90
2022-07-27T05:25:44.343Z,99.90
2022-07-27T05:28:14.142Z,99.90
2022-07-27T05:30:41.051Z,99.90
2022-07-27T05:33:07.687Z,99.90
2022-07-27T05:35:34.371Z,99.90
2022-07-27T05:38:00.974Z,99.90
2022-07-27T05:40:27.704Z,99.90
2022-07-27T05:42:54.424Z,99.90
2022-07-27T05:45:21.197Z,99.90
2022-07-27T05:47:47.965Z,99.90
2022-07-27T05:50:15.909Z,99.90
2022-07-27T05:52:43.478Z,99.90
2022-07-27T05:55:10.876Z,99.90
2022-07-27T05:57:38.226Z,99.90
2022-07-27T06:00:06.566Z,99.90
2022-07-27T06:02:33.246Z,99.90
2022-07-27T06:05:00.095Z,99.90
2022-07-27T06:07:45.239Z,99.90
2022-07-27T06:10:17.281Z,99.90
2022-07-27T06:12:45.909Z,99.90
2022-07-27T06:15:13.646Z,99.90
2022-07-27T06:17:40.976Z,99.90
2022-07-27T06:20:08.938Z,99.90
2022-07-27T06:22:57.640Z,99.90
2022-07-27T06:25:33.971Z,99.90
2022-07-27T06:28:02.720Z,99.90
2022-07-27T06:30:29.414Z,99.90
2022-07-27T06:32:57.820Z,99.90
2022-07-27T06:35:25.680Z,99.90
2022-07-27T06:37:52.815Z,99.90
2022-07-27T06:40:20.426Z,99.90
2022-07-27T06:42:47.677Z,99.90
2022-07-27T06:45:14.740Z,99.90
2022-07-27T06:47:49.881Z,99.90
2022-07-27T06:50:20.959Z,99.90
2022-07-27T06:52:48.549Z,99.90
2022-07-27T06:55:15.559Z,99.90
2022-07-27T06:57:42.891Z,99.90
2022-07-27T07:00:10.310Z,99.90
2022-07-27T07:02:37.020Z,99.90
2022-07-27T07:05:04.092Z,99.90
2022-07-27T07:07:31.565Z,99.90
2022-07-27T07:09:58.234Z,99.90
2022-07-27T07:12:25.660Z,99.90
2022-07-27T07:14:52.522Z,99.90
2022-07-27T07:17:19.864Z,99.90
2022-07-27T07:19:46.623Z,99.90
2022-07-27T07:22:13.336Z,99.90
2022-07-27T07:24:40.088Z,99.90
2022-07-27T07:27:06.817Z,99.90
2022-07-27T07:29:33.530Z,99.90
2022-07-27T07:32:00.268Z,99.90
2022-07-27T07:34:28.666Z,99.90
2022-07-27T07:36:55.657Z,99.90
2022-07-27T07:39:22.317Z,99.90
2022-07-27T07:41:49.015Z,99.90
2022-07-27T07:44:15.760Z,99.90
2022-07-27T07:46:47.084Z,99.90
2022-07-27T07:49:14.603Z,99.90
2022-07-27T07:51:41.704Z,99.90
2022-07-27T07:54:08.793Z,99.90
2022-07-27T07:56:35.378Z,99.90
2022-07-27T07:59:04.810Z,99.90
2022-07-27T08:01:31.553Z,99.90
2022-07-27T08:03:58.314Z,99.90
2022-07-27T08:06:25.039Z,99.90
2022-07-27T08:08:51.705Z,99.90
2022-07-27T08:11:18.616Z,99.90
2022-07-27T08:13:45.615Z,99.90
2022-07-27T08:16:12.609Z,99.90
2022-07-27T08:18:39.338Z,99.90
2022-07-27T08:21:05.963Z,99.90
2022-07-27T08:23:32.650Z,99.90
2022-07-27T08:26:02.882Z,99.90
2022-07-27T08:28:37.129Z,99.90
2022-07-27T08:31:13.891Z,99.90
2022-07-27T08:33:42.005Z,99.90
2022-07-27T08:36:08.626Z,99.90
2022-07-27T08:38:35.284Z,99.90
2022-07-27T08:41:02.922Z,99.90
2022-07-27T08:43:31.005Z,99.90
2022-07-27T08:46:00.283Z,99.90
2022-07-27T08:48:30.568Z,99.90
2022-07-27T08:50:57.644Z,99.90
2022-07-27T08:53:24.834Z,99.90
2022-07-27T08:55:51.611Z,99.90
2022-07-27T08:58:18.489Z,99.90
2022-07-27T09:00:48.289Z,99.90
2022-07-27T09:03:20.125Z,99.90
2022-07-27T09:05:51.144Z,99.90
2022-07-27T09:08:30.193Z,99.90
2022-07-27T09:10:59.507Z,99.90
2022-07-27T09:13:32.134Z,99.90
2022-07-27T09:16:23.548Z,99.90
2022-07-27T09:19:00.146Z,99.90
2022-07-27T09:21:26.923Z,99.90
2022-07-27T09:23:56.066Z,99.90
2022-07-27T09:26:33.186Z,99.90
2022-07-27T09:29:02.131Z,99.90
2022-07-27T09:31:29.795Z,99.90
2022-07-27T09:34:00.194Z,99.90
2022-07-27T09:36:28.350Z,99.90
2022-07-27T09:39:06.612Z,99.90
2022-07-27T09:41:45.743Z,99.90
2022-07-27T09:44:31.656Z,99.90
2022-07-27T09:47:00.032Z,99.90
2022-07-27T09:49:30.835Z,99.90
2022-07-27T09:52:00.494Z,99.90
2022-07-27T09:54:40.885Z,99.90
2022-07-27T09:57:07.556Z,99.90
2022-07-27T09:59:34.166Z,99.90
2022-07-27T10:02:01.581Z,99.90
2022-07-27T10:04:28.392Z,99.90
2022-07-27T10:07:05.292Z,99.90
2022-07-27T10:09:34.992Z,99.90
2022-07-27T10:12:04.742Z,99.90
2022-07-27T10:14:32.430Z,99.90
2022-07-27T10:16:59.541Z,99.90
2022-07-27T10:19:35.967Z,99.90
2022-07-27T10:22:02.635Z,99.90
2022-07-27T10:24:36.296Z,99.90
2022-07-27T10:27:27.839Z,99.90
2022-07-27T10:29:55.410Z,99.90
2022-07-27T10:32:33.046Z,99.90
2022-07-27T10:35:02.882Z,99.90
2022-07-27T10:37:31.836Z,99.90
2022-07-27T10:40:18.451Z,99.90
2022-07-27T10:42:51.997Z,99.90
2022-07-27T10:45:21.185Z,99.90
2022-07-27T10:47:50.815Z,99.90
2022-07-27T10:50:17.444Z,99.90
2022-07-27T10:52:57.556Z,99.90
2022-07-27T10:55:30.577Z,99.90
2022-07-27T10:57:58.018Z,99.90
2022-07-27T11:00:54.823Z,99.90
2022-07-27T11:03:30.765Z,99.90
2022-07-27T11:06:04.694Z,99.90
2022-07-27T11:08:49.758Z,99.90
2022-07-27T11:11:25.089Z,99.90
2022-07-27T11:13:54.528Z,99.90
2022-07-27T11:16:24.332Z,99.90
2022-07-27T11:18:54.565Z,99.90
2022-07-27T11:21:26.905Z,99.90
2022-07-27T11:23:56.642Z,99.90
2022-07-27T11:26:25.550Z,99.90
2022-07-27T11:28:52.689Z,99.90
2022-07-27T11:31:38.338Z,99.30
2022-07-27T11:34:07.487Z,99.00
2022-07-27T11:36:45.514Z,99.60
2022-07-27T11:39:15.150Z,99.90
2022-07-27T11:42:08.877Z,99.90
2022-07-27T11:44:30.182Z,99.90
2022-07-27T11:47:01.684Z,99.90
2022-07-27T11:49:31.112Z,99.90
2022-07-27T11:51:59.599Z,99.50
2022-07-27T11:54:27.670Z,99.30
2022-07-27T11:57:01.543Z,98.90
2022-07-27T11:59:30.568Z,98.40
2022-07-27T12:01:59.613Z,98.60
2022-07-27T12:04:29.041Z,98.60
2022-07-27T12:07:12.286Z,98.80
2022-07-27T12:09:47.999Z,98.70
2022-07-27T12:12:18.571Z,97.90
2022-07-27T12:14:50.853Z,97.90
2022-07-27T12:17:28.095Z,97.30
2022-07-27T12:20:00.841Z,97.60
2022-07-27T12:22:30.502Z,97.30
2022-07-27T12:24:59.055Z,97.40
2022-07-27T12:27:29.030Z,97.40
2022-07-27T12:29:59.917Z,96.60
2022-07-27T12:32:28.332Z,96.60
2022-07-27T12:34:55.276Z,96.70
2022-07-27T12:37:22.319Z,96.70
2022-07-27T12:39:50.006Z,97.30
2022-07-27T12:42:16.738Z,97.50
2022-07-27T12:44:44.962Z,97.40
2022-07-27T12:47:30.745Z,96.60
2022-07-27T12:50:11.285Z,96.50
2022-07-27T12:52:43.116Z,96.90
2022-07-27T12:55:15.718Z,96.40
2022-07-27T12:57:55.086Z,96.60
2022-07-27T13:00:29.393Z,95.70
2022-07-27T13:03:00.643Z,96.10
2022-07-27T13:05:27.574Z,96.10
2022-07-27T13:07:54.484Z,96.10
2022-07-27T13:10:21.343Z,95.90
2022-07-27T13:12:48.929Z,96.40
2022-07-27T13:15:16.649Z,95.60
2022-07-27T13:17:45.120Z,95.10
2022-07-27T13:20:12.776Z,95.10
2022-07-27T13:22:40.769Z,95.00
2022-07-27T13:25:16.345Z,95.40
2022-07-27T13:27:46.323Z,95.60
2022-07-27T13:30:14.980Z,95.60
2022-07-27T13:32:43.073Z,95.60
2022-07-27T13:35:14.645Z,95.40
2022-07-27T13:37:41.785Z,95.30
2022-07-27T13:40:09.688Z,95.20
2022-07-27T13:42:36.488Z,94.50
2022-07-27T13:45:09.928Z,94.70
2022-07-27T13:47:39.117Z,95.20
2022-07-27T13:50:13.323Z,95.50
2022-07-27T13:52:44.433Z,95.40
2022-07-27T13:55:11.210Z,95.60
2022-07-27T13:57:37.970Z,95.60
2022-07-27T14:00:05.488Z,95.90
2022-07-27T14:02:32.317Z,95.70
2022-07-27T14:04:59.014Z,95.90
2022-07-27T14:07:28.193Z,95.70
2022-07-27T14:10:13.964Z,95.90
2022-07-27T14:12:40.724Z,95.60
2022-07-27T14:15:07.966Z,95.30
2022-07-27T14:17:34.568Z,94.70
2022-07-27T14:20:01.235Z,94.40
2022-07-27T14:22:27.971Z,94.70
2022-07-27T14:24:54.816Z,94.40
2022-07-27T14:27:21.538Z,93.90
2022-07-27T14:29:48.146Z,94.20
2022-07-27T14:32:14.843Z,94.60
2022-07-27T14:34:44.242Z,94.90
2022-07-27T14:37:10.982Z,95.00
2022-07-27T14:39:39.325Z,94.70
2022-07-27T14:42:06.260Z,94.90
2022-07-27T14:44:34.802Z,94.80
2022-07-27T14:47:01.840Z,95.00
2022-07-27T14:49:28.778Z,94.80
2022-07-27T14:51:55.464Z,94.80
2022-07-27T14:54:22.208Z,94.80
2022-07-27T14:56:48.856Z,94.80
2022-07-27T14:59:16.214Z,95.00
2022-07-27T15:01:43.510Z,95.30
2022-07-27T15:04:10.247Z,94.80
2022-07-27T15:06:39.262Z,94.80
2022-07-27T15:09:07.565Z,94.90
2022-07-27T15:11:34.488Z,95.00
2022-07-27T15:14:01.318Z,95.10
2022-07-27T15:16:31.767Z,95.00
2022-07-27T15:18:58.584Z,94.90
2022-07-27T15:21:25.359Z,95.00
2022-07-27T15:23:52.067Z,95.00
2022-07-27T15:26:18.962Z,95.20
2022-07-27T15:28:45.632Z,95.30
2022-07-27T15:31:13.297Z,95.30
2022-07-27T15:33:40.318Z,95.40
2022-07-27T15:36:07.047Z,95.40
2022-07-27T15:38:33.805Z,95.40
2022-07-27T15:41:00.757Z,95.20
2022-07-27T15:43:27.533Z,95.60
2022-07-27T15:45:54.232Z,95.20
2022-07-27T15:48:21.041Z,95.00
2022-07-27T15:50:50.425Z,94.80
2022-07-27T15:53:18.594Z,94.70
2022-07-27T15:55:45.493Z,94.80
2022-07-27T15:58:13.868Z,94.70
2022-07-27T16:00:41.677Z,95.10
2022-07-27T16:03:10.461Z,95.70
2022-07-27T16:05:38.166Z,95.50
2022-07-27T16:08:05.336Z,96.00
2022-07-27T16:10:32.011Z,95.70
2022-07-27T16:13:00.451Z,95.80
2022-07-27T16:15:46.362Z,95.40
2022-07-27T16:18:13.244Z,95.60
2022-07-27T16:20:39.912Z,95.20
2022-07-27T16:23:18.640Z,95.30
2022-07-27T16:26:05.813Z,95.10
2022-07-27T16:28:35.678Z,95.00
2022-07-27T16:31:02.966Z,94.90
2022-07-27T16:33:30.217Z,94.80
2022-07-27T16:35:57.225Z,94.70
2022-07-27T16:38:23.919Z,94.80
2022-07-27T16:40:50.519Z,94.40
2022-07-27T16:43:17.129Z,94.70
2022-07-27T16:45:43.833Z,94.90
2022-07-27T16:48:12.206Z,94.80
2022-07-27T16:50:38.846Z,94.90
2022-07-27T16:53:05.449Z,94.70
2022-07-27T16:55:32.067Z,94.60
2022-07-27T16:57:58.737Z,94.60
2022-07-27T17:00:25.372Z,94.50
2022-07-27T17:02:52.523Z,94.60
2022-07-27T17:05:19.160Z,94.60
2022-07-27T17:07:45.802Z,94.70
2022-07-27T17:10:12.423Z,94.60
2022-07-27T17:12:53.354Z,94.50
2022-07-27T17:15:21.040Z,94.80
2022-07-27T17:17:47.667Z,94.90
2022-07-27T17:20:14.297Z,94.80
2022-07-27T17:22:40.929Z,95.00
2022-07-27T17:25:07.942Z,94.30
2022-07-27T17:27:35.219Z,94.60
2022-07-27T17:30:04.534Z,94.80
2022-07-27T17:32:31.183Z,94.70
2022-07-27T17:34:57.909Z,94.90
2022-07-27T17:37:24.883Z,94.90
2022-07-27T17:39:52.009Z,95.20
2022-07-27T17:42:19.223Z,95.00
2022-07-27T17:44:45.927Z,95.20
2022-07-27T17:47:12.536Z,95.10
2022-07-27T17:49:39.185Z,95.50
2022-07-27T17:52:08.247Z,95.40
2022-07-27T17:54:35.610Z,95.40
2022-07-27T17:57:02.430Z,95.30
2022-07-27T17:59:37.592Z,95.30
2022-07-27T18:02:05.445Z,95.30
2022-07-27T18:04:38.948Z,95.30
2022-07-27T18:07:06.346Z,95.30
2022-07-27T18:09:33.573Z,95.10
2022-07-27T18:12:00.625Z,95.10
2022-07-27T18:14:27.549Z,94.80
2022-07-27T18:16:54.255Z,95.00
2022-07-27T18:19:21.149Z,95.20
2022-07-27T18:21:47.799Z,95.10
2022-07-27T18:24:14.863Z,95.20
2022-07-27T18:26:41.857Z,95.50
2022-07-27T18:29:09.565Z,95.80
2022-07-27T18:31:36.800Z,95.90
2022-07-27T18:34:06.744Z,96.20
2022-07-27T18:36:38.662Z,96.30
2022-07-27T18:39:05.378Z,96.60
2022-07-27T18:41:32.192Z,96.80
2022-07-27T18:43:58.878Z,97.20
2022-07-27T18:46:26.440Z,97.20
2022-07-27T18:48:53.168Z,97.10
2022-07-27T18:51:20.117Z,97.20
2022-07-27T18:53:48.775Z,97.30
2022-07-27T18:56:15.754Z,97.50
2022-07-27T18:58:42.729Z,97.70
2022-07-27T19:01:09.667Z,97.60
2022-07-27T19:03:37.234Z,98.00
2022-07-27T19:06:06.575Z,98.10
2022-07-27T19:08:35.227Z,98.10
2022-07-27T19:11:01.868Z,98.10
2022-07-27T19:13:28.562Z,98.10
2022-07-27T19:15:55.209Z,98.40
2022-07-27T19:18:23.503Z,98.50
2022-07-27T19:20:50.552Z,98.50
2022-07-27T19:23:17.365Z,98.60
2022-07-27T19:25:45.112Z,98.70
2022-07-27T19:28:15.782Z,98.80
2022-07-27T19:30:42.563Z,99.00
2022-07-27T19:33:09.344Z,99.20
2022-07-27T19:35:36.118Z,99.40
2022-07-27T19:38:02.725Z,99.50
2022-07-27T19:40:45.912Z,99.60
2022-07-27T19:43:15.797Z,99.40
2022-07-27T19:45:42.830Z,99.40
2022-07-27T19:48:12.618Z,99.70
2022-07-27T19:50:41.418Z,99.80
2022-07-27T19:53:08.573Z,99.90
2022-07-27T19:55:35.357Z,99.90
2022-07-27T19:58:02.200Z,99.90
2022-07-27T20:00:28.951Z,99.90
2022-07-27T20:02:55.645Z,99.90
2022-07-27T20:05:22.493Z,99.90
2022-07-27T20:07:49.093Z,99.90
2022-07-27T20:10:16.287Z,99.90
2022-07-27T20:12:43.059Z,99.90
2022-07-27T20:15:09.922Z,99.90
2022-07-27T20:17:37.636Z,99.90
2022-07-27T20:20:08.100Z,99.90
2022-07-27T20:22:34.944Z,99.90
2022-07-27T20:25:02.301Z,99.90
2022-07-27T20:27:28.984Z,99.90
2022-07-27T20:29:55.627Z,99.90
2022-07-27T20:32:22.373Z,99.90
2022-07-27T20:34:49.037Z,99.90
2022-07-27T20:37:16.163Z,99.90
2022-07-27T20:39:42.916Z,99.90
2022-07-27T20:42:10.815Z,99.90
2022-07-27T20:44:37.440Z,99.90
2022-07-27T20:47:04.100Z,99.90
2022-07-27T20:49:30.797Z,99.90
2022-07-27T20:51:57.527Z,99.90
2022-07-27T20:54:27.272Z,99.90
2022-07-27T20:56:56.682Z,99.90
2022-07-27T20:59:23.831Z,99.90
2022-07-27T21:01:50.688Z,99.90
2022-07-27T21:04:18.959Z,99.90
2022-07-27T21:06:45.929Z,99.90
2022-07-27T21:09:12.819Z,99.90
2022-07-27T21:11:39.771Z,99.90
2022-07-27T21:14:07.667Z,99.90
2022-07-27T21:16:34.400Z,99.90
2022-07-27T21:19:01.258Z,99.90
2022-07-27T21:21:28.306Z,99.90
2022-07-27T21:24:14.753Z,99.90
2022-07-27T21:26:43.927Z,99.90
2022-07-27T21:29:11.967Z,99.90
2022-07-27T21:31:39.384Z,99.90
2022-07-27T21:34:07.710Z,99.90
2022-07-27T21:36:34.953Z,99.90
2022-07-27T21:39:01.658Z,99.90
2022-07-27T21:41:28.540Z,99.90
2022-07-27T21:43:55.226Z,99.90
2022-07-27T21:46:21.867Z,99.90
2022-07-27T21:48:48.787Z,99.90
2022-07-27T21:51:18.243Z,99.90
2022-07-27T21:53:45.735Z,99.90
2022-07-27T21:56:13.536Z,99.90
2022-07-27T21:58:40.449Z,99.90
2022-07-27T22:01:10.111Z,99.90
2022-07-27T22:03:36.895Z,99.90
2022-07-27T22:06:05.175Z,99.90
2022-07-27T22:08:32.724Z,99.90
2022-07-27T22:10:59.403Z,99.90
2022-07-27T22:13:26.778Z,99.90
2022-07-27T22:15:53.610Z,99.90
2022-07-27T22:18:21.113Z,99.90
2022-07-27T22:20:48.848Z,99.90
2022-07-27T22:23:15.795Z,99.90
2022-07-27T22:25:42.407Z,99.90
2022-07-27T22:28:09.277Z,99.90
2022-07-27T22:30:36.204Z,99.90
2022-07-27T22:33:02.950Z,99.90
2022-07-27T22:35:30.128Z,99.90
2022-07-27T22:37:56.864Z,99.90
2022-07-27T22:40:24.394Z,99.90
2022-07-27T22:42:51.051Z,99.90
2022-07-27T22:45:17.843Z,99.90
2022-07-27T22:47:44.497Z,99.90
2022-07-27T22:50:13.456Z,99.90
2022-07-27T22:52:45.150Z,99.90
2022-07-27T22:55:11.835Z,99.90
2022-07-27T22:57:38.463Z,99.90
2022-07-27T23:00:06.729Z,99.90
2022-07-27T23:02:34.346Z,99.90
2022-07-27T23:05:01.269Z,99.90
2022-07-27T23:07:27.947Z,99.90
2022-07-27T23:09:56.986Z,99.90
2022-07-27T23:12:24.309Z,99.90
2022-07-27T23:14:51.150Z,99.90
2022-07-27T23:17:17.828Z,99.90
2022-07-27T23:19:47.424Z,99.90
2022-07-27T23:22:17.250Z,99.90
2022-07-27T23:24:44.336Z,99.90
2022-07-27T23:27:11.774Z,99.90
2022-07-27T23:29:38.482Z,99.90
2022-07-27T23:32:06.886Z,99.90
2022-07-27T23:34:35.477Z,99.90
2022-07-27T23:37:02.086Z,99.90
2022-07-27T23:39:28.770Z,99.90
2022-07-27T23:41:55.389Z,99.90
2022-07-27T23:44:22.022Z,99.90
2022-07-27T23:46:48.660Z,99.90
2022-07-27T23:49:15.380Z,99.90
2022-07-27T23:51:42.114Z,99.90
2022-07-27T23:54:09.160Z,99.90
2022-07-27T23:56:35.776Z,99.90
2022-07-27T23:59:02.416Z,99.90
